sensor_id;sensor_type;location;lat;lon;timestamp;P1;durP1;ratioP1;P2;durP2;ratioP2
43996;SDS011;34318;45.818;15.964;2022-12-08T00:00:28;17.52;;;10.52;;
43996;SDS011;34318;45.818;15.964;2022-12-08T00:02:55;14.80;;;9.52;;
43996;SDS011;34318;45.818;15.964;2022-12-08T00:05:23;14.68;;;10.32;;
43996;SDS011;34318;45.818;15.964;2022-12-08T00:08:09;14.48;;;11.00;;
43996;SDS011;34318;45.818;15.964;2022-12-08T00:10:55;15.88;;;10.40;;
43996;SDS011;34318;45.818;15.964;2022-12-08T00:13:22;12.95;;;9.50;;
43996;SDS011;34318;45.818;15.964;2022-12-08T00:15:50;12.35;;;9.55;;
43996;SDS011;34318;45.818;15.964;2022-12-08T00:18:17;11.20;;;8.73;;
43996;SDS011;34318;45.818;15.964;2022-12-08T00:20:44;13.98;;;10.68;;
43996;SDS011;34318;45.818;15.964;2022-12-08T00:23:11;10.98;;;8.98;;
43996;SDS011;34318;45.818;15.964;2022-12-08T00:25:38;13.23;;;9.65;;
43996;SDS011;34318;45.818;15.964;2022-12-08T00:28:06;15.43;;;9.32;;
43996;SDS011;34318;45.818;15.964;2022-12-08T00:30:33;11.65;;;8.98;;
43996;SDS011;34318;45.818;15.964;2022-12-08T00:33:00;13.85;;;9.45;;
43996;SDS011;34318;45.818;15.964;2022-12-08T00:35:27;10.60;;;9.00;;
43996;SDS011;34318;45.818;15.964;2022-12-08T00:37:54;13.75;;;9.02;;
43996;SDS011;34318;45.818;15.964;2022-12-08T00:40:26;11.98;;;8.90;;
43996;SDS011;34318;45.818;15.964;2022-12-08T00:42:53;10.02;;;8.80;;
43996;SDS011;34318;45.818;15.964;2022-12-08T00:45:20;10.45;;;9.15;;
43996;SDS011;34318;45.818;15.964;2022-12-08T00:47:48;9.77;;;8.70;;
43996;SDS011;34318;45.818;15.964;2022-12-08T00:50:15;13.10;;;8.95;;
43996;SDS011;34318;45.818;15.964;2022-12-08T00:52:42;9.80;;;8.52;;
43996;SDS011;34318;45.818;15.964;2022-12-08T00:55:09;13.27;;;8.40;;
43996;SDS011;34318;45.818;15.964;2022-12-08T00:57:36;10.77;;;8.73;;
43996;SDS011;34318;45.818;15.964;2022-12-08T01:00:04;13.00;;;8.50;;
43996;SDS011;34318;45.818;15.964;2022-12-08T01:02:32;9.88;;;8.38;;
43996;SDS011;34318;45.818;15.964;2022-12-08T01:04:59;12.85;;;9.70;;
43996;SDS011;34318;45.818;15.964;2022-12-08T01:07:26;12.55;;;8.55;;
43996;SDS011;34318;45.818;15.964;2022-12-08T01:09:53;11.63;;;8.60;;
43996;SDS011;34318;45.818;15.964;2022-12-08T01:12:23;9.00;;;8.02;;
43996;SDS011;34318;45.818;15.964;2022-12-08T01:14:50;12.77;;;9.02;;
43996;SDS011;34318;45.818;15.964;2022-12-08T01:17:17;13.45;;;8.57;;
43996;SDS011;34318;45.818;15.964;2022-12-08T01:19:44;9.93;;;8.05;;
43996;SDS011;34318;45.818;15.964;2022-12-08T01:22:11;9.57;;;7.68;;
43996;SDS011;34318;45.818;15.964;2022-12-08T01:24:38;10.15;;;7.97;;
43996;SDS011;34318;45.818;15.964;2022-12-08T01:27:06;8.88;;;8.02;;
43996;SDS011;34318;45.818;15.964;2022-12-08T01:29:33;10.32;;;7.60;;
43996;SDS011;34318;45.818;15.964;2022-12-08T01:32:00;8.90;;;8.00;;
43996;SDS011;34318;45.818;15.964;2022-12-08T01:34:27;9.73;;;8.73;;
43996;SDS011;34318;45.818;15.964;2022-12-08T01:36:54;8.52;;;7.63;;
43996;SDS011;34318;45.818;15.964;2022-12-08T01:39:22;11.75;;;7.80;;
43996;SDS011;34318;45.818;15.964;2022-12-08T01:41:49;8.88;;;7.97;;
43996;SDS011;34318;45.818;15.964;2022-12-08T01:46:44;10.77;;;8.55;;
43996;SDS011;34318;45.818;15.964;2022-12-08T01:49:20;11.70;;;7.88;;
43996;SDS011;34318;45.818;15.964;2022-12-08T01:51:58;8.93;;;6.80;;
43996;SDS011;34318;45.818;15.964;2022-12-08T01:54:27;8.20;;;7.32;;
43996;SDS011;34318;45.818;15.964;2022-12-08T01:57:15;11.95;;;8.15;;
43996;SDS011;34318;45.818;15.964;2022-12-08T01:59:44;9.23;;;8.25;;
43996;SDS011;34318;45.818;15.964;2022-12-08T02:02:12;9.13;;;7.97;;
43996;SDS011;34318;45.818;15.964;2022-12-08T02:04:40;11.10;;;8.57;;
43996;SDS011;34318;45.818;15.964;2022-12-08T02:07:07;8.25;;;7.45;;
43996;SDS011;34318;45.818;15.964;2022-12-08T02:09:35;8.70;;;7.60;;
43996;SDS011;34318;45.818;15.964;2022-12-08T02:12:03;8.45;;;7.55;;
43996;SDS011;34318;45.818;15.964;2022-12-08T02:14:30;9.00;;;7.15;;
43996;SDS011;34318;45.818;15.964;2022-12-08T02:17:00;9.82;;;7.72;;
43996;SDS011;34318;45.818;15.964;2022-12-08T02:19:36;11.38;;;7.40;;
43996;SDS011;34318;45.818;15.964;2022-12-08T02:27:26;8.82;;;7.50;;
43996;SDS011;34318;45.818;15.964;2022-12-08T02:37:29;7.35;;;6.65;;
43996;SDS011;34318;45.818;15.964;2022-12-08T02:43:06;7.85;;;6.85;;
43996;SDS011;34318;45.818;15.964;2022-12-08T02:45:38;7.28;;;6.63;;
43996;SDS011;34318;45.818;15.964;2022-12-08T02:48:07;7.18;;;6.47;;
43996;SDS011;34318;45.818;15.964;2022-12-08T02:50:35;9.10;;;6.40;;
43996;SDS011;34318;45.818;15.964;2022-12-08T02:53:02;7.53;;;6.45;;
43996;SDS011;34318;45.818;15.964;2022-12-08T03:05:54;7.50;;;6.72;;
43996;SDS011;34318;45.818;15.964;2022-12-08T03:08:26;9.73;;;7.03;;
43996;SDS011;34318;45.818;15.964;2022-12-08T03:10:56;7.68;;;6.90;;
43996;SDS011;34318;45.818;15.964;2022-12-08T03:13:30;6.95;;;6.35;;
43996;SDS011;34318;45.818;15.964;2022-12-08T03:15:58;6.68;;;5.97;;
43996;SDS011;34318;45.818;15.964;2022-12-08T03:18:26;6.82;;;6.13;;
43996;SDS011;34318;45.818;15.964;2022-12-08T03:20:54;7.75;;;6.47;;
43996;SDS011;34318;45.818;15.964;2022-12-08T03:23:22;9.23;;;6.85;;
43996;SDS011;34318;45.818;15.964;2022-12-08T03:28:41;7.18;;;6.40;;
43996;SDS011;34318;45.818;15.964;2022-12-08T03:31:09;7.55;;;6.75;;
43996;SDS011;34318;45.818;15.964;2022-12-08T03:33:39;7.85;;;6.82;;
43996;SDS011;34318;45.818;15.964;2022-12-08T03:36:06;7.97;;;7.18;;
43996;SDS011;34318;45.818;15.964;2022-12-08T03:38:38;6.68;;;5.97;;
43996;SDS011;34318;45.818;15.964;2022-12-08T03:41:05;8.88;;;6.68;;
43996;SDS011;34318;45.818;15.964;2022-12-08T03:46:13;6.90;;;6.20;;
43996;SDS011;34318;45.818;15.964;2022-12-08T03:48:41;7.82;;;6.97;;
43996;SDS011;34318;45.818;15.964;2022-12-08T03:51:11;7.40;;;6.70;;
43996;SDS011;34318;45.818;15.964;2022-12-08T03:53:38;6.75;;;6.05;;
43996;SDS011;34318;45.818;15.964;2022-12-08T03:56:27;7.50;;;6.30;;
43996;SDS011;34318;45.818;15.964;2022-12-08T03:58:54;6.53;;;5.93;;
43996;SDS011;34318;45.818;15.964;2022-12-08T04:01:21;7.03;;;6.35;;
43996;SDS011;34318;45.818;15.964;2022-12-08T04:03:48;7.07;;;6.32;;
43996;SDS011;34318;45.818;15.964;2022-12-08T04:06:16;7.10;;;6.13;;
43996;SDS011;34318;45.818;15.964;2022-12-08T04:08:43;7.95;;;6.32;;
43996;SDS011;34318;45.818;15.964;2022-12-08T04:11:11;7.28;;;6.60;;
43996;SDS011;34318;45.818;15.964;2022-12-08T04:13:38;6.60;;;5.90;;
43996;SDS011;34318;45.818;15.964;2022-12-08T04:16:06;7.00;;;6.35;;
43996;SDS011;34318;45.818;15.964;2022-12-08T04:18:34;7.32;;;6.63;;
43996;SDS011;34318;45.818;15.964;2022-12-08T04:21:01;7.07;;;6.38;;
43996;SDS011;34318;45.818;15.964;2022-12-08T04:23:28;7.80;;;6.18;;
43996;SDS011;34318;45.818;15.964;2022-12-08T04:25:55;6.80;;;5.97;;
43996;SDS011;34318;45.818;15.964;2022-12-08T04:28:23;6.90;;;6.25;;
43996;SDS011;34318;45.818;15.964;2022-12-08T04:30:50;6.80;;;5.75;;
43996;SDS011;34318;45.818;15.964;2022-12-08T04:33:17;7.07;;;6.40;;
43996;SDS011;34318;45.818;15.964;2022-12-08T04:35:44;7.53;;;6.30;;
43996;SDS011;34318;45.818;15.964;2022-12-08T04:38:11;6.70;;;6.07;;
43996;SDS011;34318;45.818;15.964;2022-12-08T04:40:39;7.18;;;6.57;;
43996;SDS011;34318;45.818;15.964;2022-12-08T04:43:06;6.53;;;5.80;;
43996;SDS011;34318;45.818;15.964;2022-12-08T04:45:33;7.90;;;6.13;;
43996;SDS011;34318;45.818;15.964;2022-12-08T04:48:01;6.90;;;6.18;;
43996;SDS011;34318;45.818;15.964;2022-12-08T04:50:28;6.13;;;5.18;;
43996;SDS011;34318;45.818;15.964;2022-12-08T04:52:55;6.32;;;5.72;;
43996;SDS011;34318;45.818;15.964;2022-12-08T04:55:22;6.60;;;6.00;;
43996;SDS011;34318;45.818;15.964;2022-12-08T04:57:49;5.75;;;5.25;;
43996;SDS011;34318;45.818;15.964;2022-12-08T05:00:17;6.75;;;6.15;;
43996;SDS011;34318;45.818;15.964;2022-12-08T05:02:44;6.18;;;5.28;;
43996;SDS011;34318;45.818;15.964;2022-12-08T05:05:11;6.05;;;5.45;;
43996;SDS011;34318;45.818;15.964;2022-12-08T05:07:39;6.40;;;5.75;;
43996;SDS011;34318;45.818;15.964;2022-12-08T05:10:06;6.18;;;5.57;;
43996;SDS011;34318;45.818;15.964;2022-12-08T05:12:33;6.20;;;5.60;;
43996;SDS011;34318;45.818;15.964;2022-12-08T05:15:01;6.95;;;5.85;;
43996;SDS011;34318;45.818;15.964;2022-12-08T05:17:28;5.72;;;5.22;;
43996;SDS011;34318;45.818;15.964;2022-12-08T05:19:55;5.85;;;5.30;;
43996;SDS011;34318;45.818;15.964;2022-12-08T05:22:22;6.40;;;5.88;;
43996;SDS011;34318;45.818;15.964;2022-12-08T05:24:49;6.72;;;5.88;;
43996;SDS011;34318;45.818;15.964;2022-12-08T05:27:17;8.23;;;6.15;;
43996;SDS011;34318;45.818;15.964;2022-12-08T05:29:44;7.57;;;5.88;;
43996;SDS011;34318;45.818;15.964;2022-12-08T05:32:13;6.00;;;5.40;;
43996;SDS011;34318;45.818;15.964;2022-12-08T05:34:40;6.32;;;5.70;;
43996;SDS011;34318;45.818;15.964;2022-12-08T05:37:07;6.47;;;5.60;;
43996;SDS011;34318;45.818;15.964;2022-12-08T05:39:34;6.00;;;5.45;;
43996;SDS011;34318;45.818;15.964;2022-12-08T05:42:02;6.18;;;5.25;;
43996;SDS011;34318;45.818;15.964;2022-12-08T05:44:29;6.43;;;5.82;;
43996;SDS011;34318;45.818;15.964;2022-12-08T05:46:56;6.43;;;5.80;;
43996;SDS011;34318;45.818;15.964;2022-12-08T05:49:23;5.63;;;5.13;;
43996;SDS011;34318;45.818;15.964;2022-12-08T05:51:50;6.47;;;5.93;;
43996;SDS011;34318;45.818;15.964;2022-12-08T05:54:20;7.75;;;5.97;;
43996;SDS011;34318;45.818;15.964;2022-12-08T05:56:49;6.00;;;5.40;;
43996;SDS011;34318;45.818;15.964;2022-12-08T05:59:16;6.63;;;6.00;;
43996;SDS011;34318;45.818;15.964;2022-12-08T06:01:43;7.70;;;5.72;;
43996;SDS011;34318;45.818;15.964;2022-12-08T06:04:10;6.15;;;5.13;;
43996;SDS011;34318;45.818;15.964;2022-12-08T06:06:38;6.30;;;5.63;;
43996;SDS011;34318;45.818;15.964;2022-12-08T06:09:05;5.80;;;5.30;;
43996;SDS011;34318;45.818;15.964;2022-12-08T06:11:32;5.80;;;5.30;;
43996;SDS011;34318;45.818;15.964;2022-12-08T06:14:00;6.00;;;5.47;;
43996;SDS011;34318;45.818;15.964;2022-12-08T06:16:28;7.95;;;6.47;;
43996;SDS011;34318;45.818;15.964;2022-12-08T06:18:55;8.90;;;6.13;;
43996;SDS011;34318;45.818;15.964;2022-12-08T06:21:23;9.77;;;7.05;;
43996;SDS011;34318;45.818;15.964;2022-12-08T06:23:51;7.43;;;6.72;;
43996;SDS011;34318;45.818;15.964;2022-12-08T06:26:18;14.32;;;6.80;;
43996;SDS011;34318;45.818;15.964;2022-12-08T06:28:46;9.60;;;6.47;;
43996;SDS011;34318;45.818;15.964;2022-12-08T06:31:15;12.30;;;6.38;;
43996;SDS011;34318;45.818;15.964;2022-12-08T06:33:43;7.38;;;6.45;;
43996;SDS011;34318;45.818;15.964;2022-12-08T06:36:11;9.52;;;7.63;;
43996;SDS011;34318;45.818;15.964;2022-12-08T06:38:39;9.27;;;6.20;;
43996;SDS011;34318;45.818;15.964;2022-12-08T06:41:09;10.63;;;7.45;;
43996;SDS011;34318;45.818;15.964;2022-12-08T06:43:36;9.48;;;7.10;;
43996;SDS011;34318;45.818;15.964;2022-12-08T06:46:04;8.38;;;6.65;;
43996;SDS011;34318;45.818;15.964;2022-12-08T06:48:31;8.25;;;7.03;;
43996;SDS011;34318;45.818;15.964;2022-12-08T06:51:05;7.53;;;6.82;;
43996;SDS011;34318;45.818;15.964;2022-12-08T06:53:33;15.27;;;8.50;;
43996;SDS011;34318;45.818;15.964;2022-12-08T06:56:00;10.00;;;8.02;;
43996;SDS011;34318;45.818;15.964;2022-12-08T06:58:27;8.52;;;7.63;;
43996;SDS011;34318;45.818;15.964;2022-12-08T07:00:54;11.60;;;7.65;;
43996;SDS011;34318;45.818;15.964;2022-12-08T07:03:22;13.82;;;7.80;;
43996;SDS011;34318;45.818;15.964;2022-12-08T07:05:49;9.85;;;7.35;;
43996;SDS011;34318;45.818;15.964;2022-12-08T07:08:16;12.88;;;8.77;;
43996;SDS011;34318;45.818;15.964;2022-12-08T07:10:44;16.15;;;8.82;;
43996;SDS011;34318;45.818;15.964;2022-12-08T07:13:11;16.95;;;10.90;;
43996;SDS011;34318;45.818;15.964;2022-12-08T07:15:38;18.73;;;9.25;;
43996;SDS011;34318;45.818;15.964;2022-12-08T07:18:05;10.27;;;8.32;;
43996;SDS011;34318;45.818;15.964;2022-12-08T07:20:32;13.88;;;8.95;;
43996;SDS011;34318;45.818;15.964;2022-12-08T07:23:00;15.65;;;8.93;;
43996;SDS011;34318;45.818;15.964;2022-12-08T07:25:27;15.45;;;9.23;;
43996;SDS011;34318;45.818;15.964;2022-12-08T07:27:54;15.35;;;9.05;;
43996;SDS011;34318;45.818;15.964;2022-12-08T07:30:21;15.20;;;9.50;;
43996;SDS011;34318;45.818;15.964;2022-12-08T07:32:48;12.25;;;8.85;;
43996;SDS011;34318;45.818;15.964;2022-12-08T07:35:16;13.48;;;8.60;;
43996;SDS011;34318;45.818;15.964;2022-12-08T07:37:43;15.43;;;9.35;;
43996;SDS011;34318;45.818;15.964;2022-12-08T07:40:10;12.90;;;9.25;;
43996;SDS011;34318;45.818;15.964;2022-12-08T07:42:37;15.68;;;8.88;;
43996;SDS011;34318;45.818;15.964;2022-12-08T07:45:07;12.80;;;9.05;;
43996;SDS011;34318;45.818;15.964;2022-12-08T07:47:34;15.10;;;9.23;;
43996;SDS011;34318;45.818;15.964;2022-12-08T07:50:01;11.32;;;8.60;;
43996;SDS011;34318;45.818;15.964;2022-12-08T07:52:29;14.75;;;10.02;;
43996;SDS011;34318;45.818;15.964;2022-12-08T07:54:56;13.98;;;9.13;;
43996;SDS011;34318;45.818;15.964;2022-12-08T07:57:24;14.40;;;8.50;;
43996;SDS011;34318;45.818;15.964;2022-12-08T07:59:51;19.98;;;10.18;;
43996;SDS011;34318;45.818;15.964;2022-12-08T08:02:18;14.93;;;9.52;;
43996;SDS011;34318;45.818;15.964;2022-12-08T08:04:50;12.70;;;9.80;;
43996;SDS011;34318;45.818;15.964;2022-12-08T08:07:18;13.98;;;9.68;;
43996;SDS011;34318;45.818;15.964;2022-12-08T08:09:45;17.38;;;9.63;;
43996;SDS011;34318;45.818;15.964;2022-12-08T08:12:12;13.48;;;9.45;;
43996;SDS011;34318;45.818;15.964;2022-12-08T08:14:57;16.63;;;9.90;;
43996;SDS011;34318;45.818;15.964;2022-12-08T08:17:25;16.75;;;9.02;;
43996;SDS011;34318;45.818;15.964;2022-12-08T08:19:53;17.00;;;10.18;;
43996;SDS011;34318;45.818;15.964;2022-12-08T08:22:20;16.92;;;9.55;;
43996;SDS011;34318;45.818;15.964;2022-12-08T08:24:47;14.15;;;9.90;;
43996;SDS011;34318;45.818;15.964;2022-12-08T08:27:14;15.98;;;10.23;;
43996;SDS011;34318;45.818;15.964;2022-12-08T08:29:41;14.45;;;10.45;;
43996;SDS011;34318;45.818;15.964;2022-12-08T08:32:09;12.63;;;10.52;;
43996;SDS011;34318;45.818;15.964;2022-12-08T08:34:36;14.13;;;10.00;;
43996;SDS011;34318;45.818;15.964;2022-12-08T08:37:03;18.35;;;13.75;;
43996;SDS011;34318;45.818;15.964;2022-12-08T08:39:30;15.68;;;12.68;;
43996;SDS011;34318;45.818;15.964;2022-12-08T08:41:58;18.17;;;10.23;;
43996;SDS011;34318;45.818;15.964;2022-12-08T08:44:25;18.88;;;11.52;;
43996;SDS011;34318;45.818;15.964;2022-12-08T08:46:52;15.02;;;10.98;;
43996;SDS011;34318;45.818;15.964;2022-12-08T08:49:19;15.25;;;10.85;;
43996;SDS011;34318;45.818;15.964;2022-12-08T08:51:46;18.52;;;10.50;;
43996;SDS011;34318;45.818;15.964;2022-12-08T08:54:14;16.27;;;11.25;;
43996;SDS011;34318;45.818;15.964;2022-12-08T08:56:41;13.18;;;10.32;;
43996;SDS011;34318;45.818;15.964;2022-12-08T08:59:08;14.65;;;10.68;;
43996;SDS011;34318;45.818;15.964;2022-12-08T09:01:35;10.95;;;9.65;;
43996;SDS011;34318;45.818;15.964;2022-12-08T09:04:03;12.15;;;10.65;;
43996;SDS011;34318;45.818;15.964;2022-12-08T09:06:30;13.23;;;10.63;;
43996;SDS011;34318;45.818;15.964;2022-12-08T09:08:57;15.93;;;10.40;;
43996;SDS011;34318;45.818;15.964;2022-12-08T09:11:25;16.40;;;11.27;;
43996;SDS011;34318;45.818;15.964;2022-12-08T09:13:52;12.93;;;10.27;;
43996;SDS011;34318;45.818;15.964;2022-12-08T09:16:20;16.95;;;11.10;;
43996;SDS011;34318;45.818;15.964;2022-12-08T09:18:48;14.27;;;10.55;;
43996;SDS011;34318;45.818;15.964;2022-12-08T09:21:17;14.70;;;9.93;;
43996;SDS011;34318;45.818;15.964;2022-12-08T09:23:48;14.98;;;10.27;;
43996;SDS011;34318;45.818;15.964;2022-12-08T09:26:16;12.45;;;9.88;;
43996;SDS011;34318;45.818;15.964;2022-12-08T09:28:50;13.50;;;10.23;;
43996;SDS011;34318;45.818;15.964;2022-12-08T09:31:18;14.68;;;10.60;;
43996;SDS011;34318;45.818;15.964;2022-12-08T09:33:46;15.68;;;10.63;;
43996;SDS011;34318;45.818;15.964;2022-12-08T09:36:13;17.58;;;11.75;;
43996;SDS011;34318;45.818;15.964;2022-12-08T09:38:40;14.55;;;11.23;;
43996;SDS011;34318;45.818;15.964;2022-12-08T09:41:41;16.13;;;11.65;;
43996;SDS011;34318;45.818;15.964;2022-12-08T09:46:54;16.05;;;10.93;;
43996;SDS011;34318;45.818;15.964;2022-12-08T09:49:24;16.25;;;11.75;;
43996;SDS011;34318;45.818;15.964;2022-12-08T09:51:55;19.50;;;11.25;;
43996;SDS011;34318;45.818;15.964;2022-12-08T09:54:41;17.73;;;11.52;;
43996;SDS011;34318;45.818;15.964;2022-12-08T09:57:10;16.73;;;10.57;;
43996;SDS011;34318;45.818;15.964;2022-12-08T09:59:39;18.45;;;11.82;;
43996;SDS011;34318;45.818;15.964;2022-12-08T10:02:17;19.63;;;11.52;;
43996;SDS011;34318;45.818;15.964;2022-12-08T10:04:45;18.13;;;10.98;;
43996;SDS011;34318;45.818;15.964;2022-12-08T10:10:14;12.85;;;9.90;;
43996;SDS011;34318;45.818;15.964;2022-12-08T10:15:36;13.68;;;10.00;;
43996;SDS011;34318;45.818;15.964;2022-12-08T10:18:16;15.65;;;11.85;;
43996;SDS011;34318;45.818;15.964;2022-12-08T10:20:45;14.63;;;11.18;;
43996;SDS011;34318;45.818;15.964;2022-12-08T10:25:55;15.55;;;11.55;;
43996;SDS011;34318;45.818;15.964;2022-12-08T10:28:24;14.77;;;11.18;;
43996;SDS011;34318;45.818;15.964;2022-12-08T10:30:51;14.60;;;11.98;;
43996;SDS011;34318;45.818;15.964;2022-12-08T10:33:19;16.48;;;10.88;;
43996;SDS011;34318;45.818;15.964;2022-12-08T10:35:53;12.77;;;10.75;;
43996;SDS011;34318;45.818;15.964;2022-12-08T10:38:28;15.38;;;11.40;;
43996;SDS011;34318;45.818;15.964;2022-12-08T10:43:29;120.82;;;87.95;;
43996;SDS011;34318;45.818;15.964;2022-12-08T10:48:36;127.88;;;88.70;;
43996;SDS011;34318;45.818;15.964;2022-12-08T10:51:29;120.70;;;83.43;;
43996;SDS011;34318;45.818;15.964;2022-12-08T10:53:56;113.07;;;76.05;;
43996;SDS011;34318;45.818;15.964;2022-12-08T10:56:28;113.50;;;77.97;;
43996;SDS011;34318;45.818;15.964;2022-12-08T11:01:33;106.88;;;73.72;;
43996;SDS011;34318;45.818;15.964;2022-12-08T11:04:04;107.65;;;76.03;;
43996;SDS011;34318;45.818;15.964;2022-12-08T11:06:39;106.95;;;73.95;;
43996;SDS011;34318;45.818;15.964;2022-12-08T11:11:49;101.03;;;72.72;;
43996;SDS011;34318;45.818;15.964;2022-12-08T11:14:24;101.53;;;70.72;;
43996;SDS011;34318;45.818;15.964;2022-12-08T11:16:52;102.32;;;70.70;;
43996;SDS011;34318;45.818;15.964;2022-12-08T11:19:20;99.20;;;67.07;;
43996;SDS011;34318;45.818;15.964;2022-12-08T11:21:53;98.68;;;67.95;;
43996;SDS011;34318;45.818;15.964;2022-12-08T11:24:21;94.65;;;66.25;;
43996;SDS011;34318;45.818;15.964;2022-12-08T11:27:02;92.80;;;66.95;;
43996;SDS011;34318;45.818;15.964;2022-12-08T11:29:31;91.72;;;66.18;;
43996;SDS011;34318;45.818;15.964;2022-12-08T11:31:59;86.97;;;64.55;;
43996;SDS011;34318;45.818;15.964;2022-12-08T11:37:14;90.95;;;65.40;;
43996;SDS011;34318;45.818;15.964;2022-12-08T11:39:43;88.97;;;62.92;;
43996;SDS011;34318;45.818;15.964;2022-12-08T11:42:14;91.18;;;62.97;;
43996;SDS011;34318;45.818;15.964;2022-12-08T11:44:56;87.40;;;63.33;;
43996;SDS011;34318;45.818;15.964;2022-12-08T11:47:30;88.15;;;62.45;;
43996;SDS011;34318;45.818;15.964;2022-12-08T11:52:49;77.63;;;57.85;;
43996;SDS011;34318;45.818;15.964;2022-12-08T11:57:47;77.30;;;55.67;;
43996;SDS011;34318;45.818;15.964;2022-12-08T12:00:15;73.65;;;55.42;;
43996;SDS011;34318;45.818;15.964;2022-12-08T12:02:47;74.03;;;55.13;;
43996;SDS011;34318;45.818;15.964;2022-12-08T12:05:31;79.70;;;53.20;;
43996;SDS011;34318;45.818;15.964;2022-12-08T12:11:00;70.93;;;49.15;;
43996;SDS011;34318;45.818;15.964;2022-12-08T12:13:50;67.43;;;49.35;;
43996;SDS011;34318;45.818;15.964;2022-12-08T12:18:56;67.18;;;48.92;;
43996;SDS011;34318;45.818;15.964;2022-12-08T12:21:32;61.45;;;45.65;;
43996;SDS011;34318;45.818;15.964;2022-12-08T12:26:28;62.42;;;44.13;;
43996;SDS011;34318;45.818;15.964;2022-12-08T12:28:57;59.15;;;44.13;;
43996;SDS011;34318;45.818;15.964;2022-12-08T12:31:27;59.33;;;43.15;;
43996;SDS011;34318;45.818;15.964;2022-12-08T12:34:02;57.50;;;41.50;;
43996;SDS011;34318;45.818;15.964;2022-12-08T12:36:31;64.20;;;44.60;;
43996;SDS011;34318;45.818;15.964;2022-12-08T12:38:58;59.20;;;42.10;;
43996;SDS011;34318;45.818;15.964;2022-12-08T12:41:27;66.78;;;42.38;;
43996;SDS011;34318;45.818;15.964;2022-12-08T12:51:52;55.03;;;40.58;;
43996;SDS011;34318;45.818;15.964;2022-12-08T12:54:24;51.40;;;37.78;;
43996;SDS011;34318;45.818;15.964;2022-12-08T12:56:52;51.33;;;37.10;;
43996;SDS011;34318;45.818;15.964;2022-12-08T12:59:20;52.13;;;37.83;;
43996;SDS011;34318;45.818;15.964;2022-12-08T13:01:49;51.17;;;38.30;;
43996;SDS011;34318;45.818;15.964;2022-12-08T13:04:19;55.00;;;37.70;;
43996;SDS011;34318;45.818;15.964;2022-12-08T13:06:54;52.88;;;37.03;;
43996;SDS011;34318;45.818;15.964;2022-12-08T13:09:31;47.13;;;35.25;;
43996;SDS011;34318;45.818;15.964;2022-12-08T13:12:00;49.53;;;35.78;;
43996;SDS011;34318;45.818;15.964;2022-12-08T13:14:35;50.88;;;35.47;;
43996;SDS011;34318;45.818;15.964;2022-12-08T13:17:04;47.08;;;35.28;;
43996;SDS011;34318;45.818;15.964;2022-12-08T13:19:33;48.40;;;34.45;;
43996;SDS011;34318;45.818;15.964;2022-12-08T13:22:02;45.60;;;34.28;;
43996;SDS011;34318;45.818;15.964;2022-12-08T13:24:30;49.83;;;35.17;;
43996;SDS011;34318;45.818;15.964;2022-12-08T13:29:32;46.95;;;35.92;;
43996;SDS011;34318;45.818;15.964;2022-12-08T13:32:00;45.20;;;34.95;;
43996;SDS011;34318;45.818;15.964;2022-12-08T13:34:35;40.42;;;33.63;;
43996;SDS011;34318;45.818;15.964;2022-12-08T13:54:03;39.78;;;31.40;;
43996;SDS011;34318;45.818;15.964;2022-12-08T13:56:51;41.13;;;32.22;;
43996;SDS011;34318;45.818;15.964;2022-12-08T13:59:42;41.50;;;31.23;;
43996;SDS011;34318;45.818;15.964;2022-12-08T14:04:42;39.38;;;30.30;;
43996;SDS011;34318;45.818;15.964;2022-12-08T14:07:30;40.30;;;31.17;;
43996;SDS011;34318;45.818;15.964;2022-12-08T14:09:59;40.05;;;31.25;;
43996;SDS011;34318;45.818;15.964;2022-12-08T14:12:28;37.78;;;29.65;;
43996;SDS011;34318;45.818;15.964;2022-12-08T14:14:59;41.00;;;30.10;;
43996;SDS011;34318;45.818;15.964;2022-12-08T14:17:30;38.30;;;29.40;;
43996;SDS011;34318;45.818;15.964;2022-12-08T14:20:03;38.88;;;29.08;;
43996;SDS011;34318;45.818;15.964;2022-12-08T14:22:32;41.63;;;29.73;;
43996;SDS011;34318;45.818;15.964;2022-12-08T14:25:00;39.22;;;30.58;;
43996;SDS011;34318;45.818;15.964;2022-12-08T14:27:31;37.60;;;30.33;;
43996;SDS011;34318;45.818;15.964;2022-12-08T14:29:59;36.55;;;27.67;;
43996;SDS011;34318;45.818;15.964;2022-12-08T14:37:23;35.47;;;27.45;;
43996;SDS011;34318;45.818;15.964;2022-12-08T14:39:51;34.67;;;27.13;;
43996;SDS011;34318;45.818;15.964;2022-12-08T14:42:21;40.63;;;30.02;;
43996;SDS011;34318;45.818;15.964;2022-12-08T14:45:00;36.22;;;27.42;;
43996;SDS011;34318;45.818;15.964;2022-12-08T14:47:28;38.90;;;28.10;;
43996;SDS011;34318;45.818;15.964;2022-12-08T14:49:55;39.65;;;28.92;;
43996;SDS011;34318;45.818;15.964;2022-12-08T14:52:23;35.03;;;25.42;;
43996;SDS011;34318;45.818;15.964;2022-12-08T14:54:51;31.90;;;26.70;;
43996;SDS011;34318;45.818;15.964;2022-12-08T14:57:18;34.63;;;26.92;;
43996;SDS011;34318;45.818;15.964;2022-12-08T14:59:46;38.63;;;28.35;;
43996;SDS011;34318;45.818;15.964;2022-12-08T15:04:49;34.72;;;27.30;;
43996;SDS011;34318;45.818;15.964;2022-12-08T15:07:21;33.55;;;26.70;;
43996;SDS011;34318;45.818;15.964;2022-12-08T15:10:16;30.80;;;26.15;;
43996;SDS011;34318;45.818;15.964;2022-12-08T15:12:58;30.77;;;25.73;;
43996;SDS011;34318;45.818;15.964;2022-12-08T15:15:25;31.58;;;26.38;;
43996;SDS011;34318;45.818;15.964;2022-12-08T15:18:09;33.70;;;25.33;;
43996;SDS011;34318;45.818;15.964;2022-12-08T15:23:15;30.23;;;24.90;;
43996;SDS011;34318;45.818;15.964;2022-12-08T15:25:43;30.02;;;23.77;;
43996;SDS011;34318;45.818;15.964;2022-12-08T15:28:11;35.60;;;25.65;;
43996;SDS011;34318;45.818;15.964;2022-12-08T15:30:39;29.48;;;22.58;;
43996;SDS011;34318;45.818;15.964;2022-12-08T15:33:06;30.50;;;23.20;;
43996;SDS011;34318;45.818;15.964;2022-12-08T15:35:33;34.53;;;25.65;;
43996;SDS011;34318;45.818;15.964;2022-12-08T15:38:08;32.97;;;23.75;;
43996;SDS011;34318;45.818;15.964;2022-12-08T15:40:36;32.20;;;24.40;;
43996;SDS011;34318;45.818;15.964;2022-12-08T15:43:03;32.00;;;24.20;;
43996;SDS011;34318;45.818;15.964;2022-12-08T15:45:30;33.60;;;24.30;;
43996;SDS011;34318;45.818;15.964;2022-12-08T15:47:58;34.97;;;26.05;;
43996;SDS011;34318;45.818;15.964;2022-12-08T15:50:25;36.28;;;26.30;;
43996;SDS011;34318;45.818;15.964;2022-12-08T15:52:52;38.88;;;23.52;;
43996;SDS011;34318;45.818;15.964;2022-12-08T15:55:20;36.45;;;24.45;;
43996;SDS011;34318;45.818;15.964;2022-12-08T15:57:51;33.38;;;23.20;;
43996;SDS011;34318;45.818;15.964;2022-12-08T16:00:38;33.15;;;23.17;;
43996;SDS011;34318;45.818;15.964;2022-12-08T16:03:27;30.98;;;21.80;;
43996;SDS011;34318;45.818;15.964;2022-12-08T16:06:16;32.50;;;24.27;;
43996;SDS011;34318;45.818;15.964;2022-12-08T16:09:04;31.45;;;22.80;;
43996;SDS011;34318;45.818;15.964;2022-12-08T16:11:38;31.92;;;22.77;;
43996;SDS011;34318;45.818;15.964;2022-12-08T16:14:34;29.50;;;23.60;;
43996;SDS011;34318;45.818;15.964;2022-12-08T16:17:21;31.33;;;21.55;;
43996;SDS011;34318;45.818;15.964;2022-12-08T16:19:49;30.52;;;21.70;;
43996;SDS011;34318;45.818;15.964;2022-12-08T16:22:17;32.88;;;22.85;;
43996;SDS011;34318;45.818;15.964;2022-12-08T16:25:04;28.98;;;21.70;;